Time;durP1;ratioP1;P1;durP2;ratioP2;P2;SDS_P1;SDS_P2;PMS_P1;PMS_P2;Temp;Humidity;BMP_temperature;BMP_pressure;BME280_temperature;BME280_humidity;BME280_pressure;Samples;Min_cycle;Max_cycle;Signal;HPM_P1;HPM_P2
2021/04/02 00:02:27;;;;;;;;;;;;;;;;;;5090247;28;19911;-71
2021/04/02 00:04:55;;;;;;;;;;;;;;;;;;5063870;28;19952;-70
2021/04/02 00:07:21;;;;;;;;;;;;;;;;;;5090048;28;19904;-68
2021/04/02 00:09:49;;;;;;;;;;;15.30;99.90;;;;;;5090477;28;19912;-69
2021/04/02 00:12:14;;;;;;;;;;;15.40;99.90;;;;;;5087382;28;20414;-70
2021/04/02 00:14:43;;;;;;;;;;;;;;;;;;5072667;28;20003;-70
2021/04/02 00:17:09;;;;;;;;;;;;;;;;;;5088189;28;19911;-69
2021/04/02 00:19:36;;;;;;;;;;;;;;;;;;5065875;28;19904;-70
2021/04/02 00:22:02;;;;;;;;;;;15.40;99.90;;;;;;5094998;28;19957;-69
2021/04/02 00:24:28;;;;;;;;;;;;;;;;;;5094658;28;19908;-70
2021/04/02 00:26:53;;;;;;;;;;;15.40;99.90;;;;;;5095391;28;19969;-72
2021/04/02 00:29:19;;;;;;;;;;;15.40;99.90;;;;;;5094843;28;20315;-69
2021/04/02 00:31:47;;;;;;;;;;;;;;;;;;5083666;28;19938;-68
2021/04/02 00:34:14;;;;;;;;;;;;;;;;;;5084960;28;19950;-69
2021/04/02 00:36:40;;;;;;;;;;;15.10;99.90;;;;;;5081406;28;19918;-69
2021/04/02 00:39:06;;;;;;;;;;;;;;;;;;5090487;28;19908;-70
2021/04/02 00:41:32;;;;;;;;;;;15.00;99.90;;;;;;5092102;28;20453;-70
2021/04/02 00:43:58;;;;;;;;;;;15.00;99.90;;;;;;5084774;28;19947;-68
2021/04/02 00:46:24;;;;;;;;;;;14.90;99.90;;;;;;5093952;28;20354;-70
2021/04/02 00:48:50;;;;;;;;;;;14.60;99.90;;;;;;5093901;28;19961;-69
2021/04/02 00:51:26;;;;;;;;;;;14.90;99.90;;;;;;5093240;28;19908;-71
2021/04/02 00:53:51;;;;;;;;;;;14.80;99.90;;;;;;5091036;28;19904;-71
2021/04/02 00:56:18;;;;;;;;;;;14.60;99.90;;;;;;5093339;28;20358;-71
2021/04/02 00:58:47;;;;;;;;;;;14.80;99.90;;;;;;5093361;28;20453;-73
2021/04/02 01:01:13;;;;;;;;;;;14.60;99.90;;;;;;5093227;28;19904;-71
2021/04/02 01:03:39;;;;;;;;;;;14.50;99.90;;;;;;5093412;28;20277;-69
2021/04/02 01:06:24;;;;;;;;;;;14.40;99.90;;;;;;5093197;28;19931;-71
2021/04/02 01:08:50;;;;;;;;;;;14.40;99.90;;;;;;5088209;28;19916;-68
2021/04/02 01:11:17;;;;;;;;;;;14.40;99.90;;;;;;5088713;28;19983;-71
2021/04/02 01:13:46;;;;;;;;;;;14.40;99.90;;;;;;5091085;28;20251;-71
2021/04/02 01:16:12;;;;;;;;;;;14.40;99.90;;;;;;5093975;28;19904;-71
2021/04/02 01:18:47;;;;;;;;;;;14.40;99.90;;;;;;5092171;28;19962;-71
2021/04/02 01:21:15;;;;;;;;;;;14.40;99.90;;;;;;5089701;28;19911;-71
2021/04/02 01:24:07;;;;;;;;;;;14.20;99.90;;;;;;5073776;28;20369;-71
2021/04/02 01:26:32;;;;;;;;;;;14.20;99.90;;;;;;5082910;28;19926;-69
2021/04/02 01:29:11;;;;;;;;;;;14.10;99.90;;;;;;5087529;28;20027;-71
2021/04/02 01:31:38;;;;;;;;;;;14.20;99.90;;;;;;5074885;28;19916;-71
2021/04/02 01:34:05;;;;;;;;;;;14.10;99.90;;;;;;5075203;28;20013;-70
2021/04/02 01:36:31;;;;;;;;;;;14.10;99.90;;;;;;5086288;28;19904;-71
2021/04/02 01:38:57;;;;;;;;;;;14.10;99.90;;;;;;5093995;28;19926;-71
2021/04/02 01:41:23;;;;;;;;;;;14.10;99.90;;;;;;5066172;28;19905;-70
2021/04/02 01:43:52;;;;;;;;;;;14.10;99.90;;;;;;5089660;28;19994;-70
2021/04/02 01:46:18;;;;;;;;;;;14.10;99.90;;;;;;5087383;28;19926;-70
2021/04/02 01:48:45;;;;;;;;;;;14.10;99.90;;;;;;5081213;28;19908;-70
2021/04/02 01:51:12;;;;;;;;;;;14.10;99.90;;;;;;5086625;28;20350;-71
2021/04/02 01:53:43;;;;;;;;;;;14.10;99.90;;;;;;5094370;28;19904;-70
2021/04/02 01:56:09;;;;;;;;;;;14.10;99.90;;;;;;5087178;28;19904;-71
2021/04/02 01:58:38;;;;;;;;;;;14.10;99.90;;;;;;5084092;28;20339;-70
2021/04/02 02:01:05;;;;;;;;;;;14.20;99.90;;;;;;5084543;28;19954;-69
2021/04/02 02:03:31;;;;;;;;;;;14.10;99.90;;;;;;5061446;28;19999;-70
2021/04/02 02:05:57;;;;;;;;;;;14.20;99.90;;;;;;5087165;28;20497;-70
2021/04/02 02:08:23;;;;;;;;;;;14.20;99.90;;;;;;5087147;28;19908;-71
2021/04/02 02:10:54;;;;;;;;;;;14.20;99.90;;;;;;5081632;28;19908;-69
2021/04/02 02:13:20;;;;;;;;;;;14.20;99.90;;;;;;5086352;28;19912;-69
2021/04/02 02:15:46;;;;;;;;;;;14.20;99.90;;;;;;5082271;28;19904;-70
2021/04/02 02:18:13;;;;;;;;;;;14.10;99.90;;;;;;5085561;28;19904;-70
2021/04/02 02:20:40;;;;;;;;;;;14.20;99.90;;;;;;5089256;28;19961;-72
2021/04/02 02:23:06;;;;;;;;;;;14.20;99.90;;;;;;5093164;28;19904;-71
2021/04/02 02:25:32;;;;;;;;;;;14.10;99.90;;;;;;5093591;28;20002;-67
2021/04/02 02:27:57;;;;;;;;;;;14.00;99.90;;;;;;5075586;28;20049;-70
2021/04/02 02:30:28;;;;;;;;;;;14.00;99.90;;;;;;5093470;28;20401;-69
2021/04/02 02:32:54;;;;;;;;;;;14.10;99.90;;;;;;5093954;28;19911;-70
2021/04/02 02:35:20;;;;;;;;;;;14.00;99.90;;;;;;5094639;28;19908;-68
2021/04/02 02:37:46;;;;;;;;;;;14.10;99.90;;;;;;5083937;28;19993;-71
2021/04/02 02:40:26;;;;;;;;;;;14.10;99.90;;;;;;5090929;28;19908;-69
2021/04/02 02:42:53;;;;;;;;;;;14.20;99.90;;;;;;5067518;28;19954;-70
2021/04/02 02:45:19;;;;;;;;;;;14.10;99.90;;;;;;5091452;28;19932;-70
2021/04/02 02:47:45;;;;;;;;;;;14.10;99.90;;;;;;5087527;28;19904;-72
2021/04/02 02:50:14;;;;;;;;;;;14.10;99.90;;;;;;5095498;28;19943;-72
2021/04/02 02:52:40;;;;;;;;;;;14.10;99.90;;;;;;5099715;28;20400;-71
2021/04/02 02:55:07;;;;;;;;;;;14.00;99.90;;;;;;5092425;28;19908;-71
2021/04/02 02:57:33;;;;;;;;;;;14.00;99.90;;;;;;5092686;28;19911;-73
2021/04/02 03:00:00;;;;;;;;;;;14.00;99.90;;;;;;5109072;28;19908;-70
2021/04/02 03:02:27;;;;;;;;;;;14.00;99.90;;;;;;5095313;28;20342;-71
2021/04/02 03:04:54;;;;;;;;;;;14.50;99.90;;;;;;5094947;28;19904;-71
2021/04/02 03:07:20;;;;;;;;;;;14.10;99.90;;;;;;5090037;28;19915;-70
2021/04/02 03:09:46;;;;;;;;;;;14.10;99.90;;;;;;5095216;28;19933;-71
2021/04/02 03:12:12;;;;;;;;;;;14.10;99.90;;;;;;5091223;28;19908;-72
2021/04/02 03:14:38;;;;;;;;;;;14.00;99.90;;;;;;5061581;28;19904;-73
2021/04/02 03:17:04;;;;;;;;;;;14.10;99.90;;;;;;5093571;28;19908;-71
2021/04/02 03:19:31;;;;;;;;;;;14.20;99.90;;;;;;5092572;28;19912;-71
2021/04/02 03:21:58;;;;;;;;;;;14.20;99.90;;;;;;5089696;28;19989;-70
2021/04/02 03:24:24;;;;;;;;;;;14.30;99.90;;;;;;5095509;28;19941;-71
2021/04/02 03:26:51;;;;;;;;;;;14.40;99.90;;;;;;5081393;28;20281;-69
2021/04/02 03:29:18;;;;;;;;;;;14.50;99.90;;;;;;5100608;28;19926;-73
2021/04/02 03:31:44;;;;;;;;;;;15.00;99.90;;;;;;5099758;28;19904;-71
2021/04/02 03:34:11;;;;;;;;;;;14.40;99.90;;;;;;5099598;28;20326;-72
2021/04/02 03:36:38;;;;;;;;;;;14.60;99.90;;;;;;5100473;28;19946;-71
2021/04/02 03:39:05;;;;;;;;;;;14.60;99.90;;;;;;5101482;28;19904;-71
2021/04/02 03:41:32;;;;;;;;;;;14.50;99.90;;;;;;5083907;28;19912;-70
2021/04/02 03:43:59;;;;;;;;;;;14.50;99.90;;;;;;5102273;28;19911;-70
2021/04/02 03:46:25;;;;;;;;;;;14.40;99.90;;;;;;5079536;28;20262;-70
2021/04/02 03:48:52;;;;;;;;;;;14.30;99.90;;;;;;5113226;28;19912;-69
2021/04/02 03:51:23;;;;;;;;;;;14.20;99.90;;;;;;5096833;28;19938;-73
2021/04/02 03:53:56;;;;;;;;;;;14.10;99.90;;;;;;5094848;28;20307;-70
2021/04/02 03:56:25;;;;;;;;;;;13.90;99.90;;;;;;5096054;28;20280;-70
2021/04/02 03:58:51;;;;;;;;;;;13.80;99.90;;;;;;5094486;28;19915;-70
2021/04/02 04:01:18;;;;;;;;;;;13.80;99.90;;;;;;5088245;28;19908;-71
2021/04/02 04:03:45;;;;;;;;;;;13.70;99.90;;;;;;5063859;28;19941;-70
2021/04/02 04:06:13;;;;;;;;;;;13.70;99.90;;;;;;5088517;28;20380;-72
2021/04/02 04:08:39;;;;;;;;;;;13.70;99.90;;;;;;5093437;28;19922;-72
2021/04/02 04:11:04;;;;;;;;;;;13.70;99.90;;;;;;5083868;28;19911;-72
2021/04/02 04:13:33;;;;;;;;;;;13.70;99.90;;;;;;5088656;28;19912;-71
2021/04/02 04:15:59;;;;;;;;;;;13.80;99.90;;;;;;5082365;28;19908;-72
2021/04/02 04:18:25;;;;;;;;;;;13.90;99.90;;;;;;5087730;28;19918;-70
2021/04/02 04:20:54;;;;;;;;;;;13.90;99.90;;;;;;5091857;28;19911;-72
2021/04/02 04:23:21;;;;;;;;;;;13.90;99.90;;;;;;5095578;28;19912;-69
2021/04/02 04:25:48;;;;;;;;;;;14.00;99.90;;;;;;5095619;28;19927;-72
2021/04/02 04:28:15;;;;;;;;;;;14.00;99.90;;;;;;5095417;28;19920;-71
2021/04/02 04:30:41;;;;;;;;;;;14.00;99.90;;;;;;5095797;28;19907;-71
2021/04/02 04:33:07;;;;;;;;;;;14.10;99.90;;;;;;5095336;28;19904;-69
2021/04/02 04:35:33;;;;;;;;;;;14.20;99.90;;;;;;5095424;28;19904;-69
2021/04/02 04:37:59;;;;;;;;;;;14.10;99.90;;;;;;5095739;28;19903;-73
2021/04/02 04:40:31;;;;;;;;;;;14.30;99.90;;;;;;5095809;28;19911;-74
2021/04/02 04:42:58;;;;;;;;;;;14.30;99.90;;;;;;5095063;28;20000;-73
2021/04/02 04:45:25;;;;;;;;;;;14.40;99.90;;;;;;5077539;28;19904;-72
2021/04/02 04:47:51;;;;;;;;;;;14.50;99.90;;;;;;5077316;28;20309;-72
2021/04/02 04:50:17;;;;;;;;;;;14.50;99.90;;;;;;5095045;28;19983;-69
2021/04/02 04:53:02;;;;;;;;;;;14.60;99.90;;;;;;5077545;28;19904;-70
2021/04/02 04:55:29;;;;;;;;;;;14.50;99.90;;;;;;5095435;28;19975;-70
2021/04/02 04:57:57;;;;;;;;;;;14.40;99.90;;;;;;5094513;28;19904;-70
2021/04/02 05:00:23;;;;;;;;;;;14.40;99.90;;;;;;5095119;28;19910;-70
2021/04/02 05:02:50;;;;;;;;;;;14.30;99.90;;;;;;5077160;28;20354;-70
2021/04/02 05:05:19;;;;;;;;;;;14.30;99.90;;;;;;5095254;28;20000;-71
2021/04/02 05:07:46;;;;;;;;;;;14.20;99.90;;;;;;5077152;28;19943;-68
2021/04/02 05:10:12;;;;;;;;;;;14.40;99.90;;;;;;5094434;28;19962;-71
2021/04/02 05:12:38;;;;;;;;;;;14.50;99.90;;;;;;5094956;28;19966;-69
2021/04/02 05:15:04;;;;;;;;;;;14.70;99.90;;;;;;5076782;28;19939;-70
2021/04/02 05:17:30;;;;;;;;;;;14.80;99.90;;;;;;5094070;28;19943;-70
2021/04/02 05:19:56;;;;;;;;;;;14.70;99.90;;;;;;5094595;28;19995;-70
2021/04/02 05:22:24;;;;;;;;;;;14.80;99.90;;;;;;5094218;28;19907;-72
2021/04/02 05:24:50;;;;;;;;;;;14.80;99.90;;;;;;5094342;28;20311;-71
2021/04/02 05:27:15;;;;;;;;;;;14.90;99.90;;;;;;5082808;28;20034;-71
2021/04/02 05:29:41;;;;;;;;;;;15.20;99.90;;;;;;5059759;28;19935;-69
2021/04/02 05:32:07;;;;;;;;;;;15.50;99.90;;;;;;5094446;28;19904;-70
2021/04/02 05:34:32;;;;;;;;;;;15.50;99.90;;;;;;5094465;28;19910;-72
2021/04/02 05:36:58;;;;;;;;;;;15.20;99.90;;;;;;5094496;28;20009;-69
2021/04/02 05:39:23;;;;;;;;;;;15.10;99.90;;;;;;5094202;28;19919;-69
2021/04/02 05:41:49;;;;;;;;;;;15.30;99.90;;;;;;5093881;28;19904;-70
2021/04/02 05:44:18;;;;;;;;;;;15.30;99.90;;;;;;5094183;28;19996;-70
2021/04/02 05:46:44;;;;;;;;;;;15.40;99.90;;;;;;5093730;28;19911;-72
2021/04/02 05:49:10;;;;;;;;;;;15.40;99.90;;;;;;5094403;28;19911;-68
2021/04/02 05:51:36;;;;;;;;;;;15.60;99.90;;;;;;5093983;28;19911;-70
2021/04/02 05:54:02;;;;;;;;;;;15.70;99.90;;;;;;5094033;28;19904;-69
2021/04/02 05:56:30;;;;;;;;;;;15.50;99.90;;;;;;5092661;28;20281;-70
2021/04/02 05:58:56;;;;;;;;;;;15.50;99.90;;;;;;5089529;28;19908;-72
2021/04/02 06:01:21;;;;;;;;;;;15.50;99.90;;;;;;5088245;28;20277;-71
2021/04/02 06:03:47;;;;;;;;;;;15.70;99.90;;;;;;5089682;28;19995;-70
2021/04/02 06:06:14;;;;;;;;;;;15.80;99.90;;;;;;5087684;28;20303;-70
2021/04/02 06:08:43;;;;;;;;;;;15.90;99.90;;;;;;5065881;28;19916;-70
2021/04/02 06:11:09;;;;;;;;;;;16.00;99.90;;;;;;5088868;28;19904;-72
2021/04/02 06:13:35;;;;;;;;;;;15.80;99.90;;;;;;5092686;28;20038;-71
2021/04/02 06:16:01;;;;;;;;;;;15.80;99.90;;;;;;5084298;28;19904;-70
2021/04/02 06:18:26;;;;;;;;;;;15.60;99.90;;;;;;5064458;28;19912;-72
2021/04/02 06:20:53;;;;;;;;;;;15.70;99.90;;;;;;5089255;28;19912;-72
2021/04/02 06:23:19;;;;;;;;;;;15.80;99.90;;;;;;5086968;28;19909;-75
2021/04/02 06:26:04;;;;;;;;;;;15.90;99.90;;;;;;5081354;28;20366;-74
2021/04/02 06:28:33;;;;;;;;;;;16.10;99.90;;;;;;5077289;28;19912;-73
2021/04/02 06:31:00;;;;;;;;;;;16.30;99.90;;;;;;5093392;28;19943;-79
2021/04/02 06:33:29;;;;;;;;;;;16.40;99.90;;;;;;5055296;28;19927;-71
2021/04/02 06:35:55;;;;;;;;;;;16.40;99.90;;;;;;5075465;28;19911;-71
2021/04/02 06:38:21;;;;;;;;;;;16.60;99.90;;;;;;5076218;28;19908;-69
2021/04/02 06:40:46;;;;;;;;;;;16.80;99.90;;;;;;5076414;28;19911;-72
2021/04/02 06:43:15;;;;;;;;;;;16.70;99.90;;;;;;5082653;28;19995;-70
2021/04/02 06:45:40;;;;;;;;;;;16.70;99.90;;;;;;5073177;28;19908;-70
2021/04/02 06:48:07;;;;;;;;;;;;;;;;;;5080381;28;19912;-70
2021/04/02 06:50:33;;;;;;;;;;;;;;;;;;5075312;28;19947;-70
2021/04/02 06:53:00;;;;;;;;;;;;;;;;;;5083037;28;20273;-71
2021/04/02 06:55:27;;;;;;;;;;;;;;;;;;5088444;28;19908;-71
2021/04/02 06:57:53;;;;;;;;;;;;;;;;;;5071107;28;20357;-71
2021/04/02 07:00:20;;;;;;;;;;;;;;;;;;5080532;28;20283;-72
2021/04/02 07:02:47;;;;;;;;;;;16.00;99.90;;;;;;5092947;28;19903;-73
2021/04/02 07:05:14;;;;;;;;;;;16.60;99.90;;;;;;5061861;28;19928;-77
2021/04/02 07:07:40;;;;;;;;;;;16.80;99.90;;;;;;5068760;28;19904;-74
2021/04/02 07:10:07;;;;;;;;;;;16.90;99.90;;;;;;5067611;28;19912;-72
2021/04/02 07:12:34;;;;;;;;;;;16.80;99.90;;;;;;5080134;28;20440;-72
2021/04/02 07:15:00;;;;;;;;;;;16.90;99.90;;;;;;5067589;28;19908;-71
2021/04/02 07:17:27;;;;;;;;;;;17.00;99.90;;;;;;5092058;28;19912;-70
2021/04/02 07:19:53;;;;;;;;;;;17.10;99.90;;;;;;5093521;28;19908;-77
2021/04/02 07:22:19;;;;;;;;;;;17.10;99.90;;;;;;5069498;28;19912;-72
2021/04/02 07:24:45;;;;;;;;;;;17.10;99.90;;;;;;5091912;28;19929;-71
2021/04/02 07:27:10;;;;;;;;;;;17.10;99.90;;;;;;5094095;28;20004;-71
2021/04/02 07:29:36;;;;;;;;;;;17.10;99.90;;;;;;5094157;28;20427;-74
2021/04/02 07:32:02;;;;;;;;;;;17.30;99.90;;;;;;5075092;28;19908;-72
2021/04/02 07:34:28;;;;;;;;;;;17.20;99.90;;;;;;5095899;28;19908;-70
2021/04/02 07:36:54;;;;;;;;;;;17.30;99.90;;;;;;5083690;28;20037;-70
2021/04/02 07:39:20;;;;;;;;;;;17.40;99.90;;;;;;5091105;28;20002;-75
2021/04/02 07:41:47;;;;;;;;;;;17.40;99.90;;;;;;5090603;28;20415;-71
2021/04/02 07:44:17;;;;;;;;;;;17.40;99.90;;;;;;5091254;28;19911;-70
2021/04/02 07:47:02;;;;;;;;;;;17.40;99.90;;;;;;5092167;28;19915;-71
2021/04/02 07:49:31;;;;;;;;;;;17.50;99.90;;;;;;5089352;28;19994;-74
2021/04/02 07:51:57;;;;;;;;;;;17.50;99.90;;;;;;5084470;28;19904;-70
2021/04/02 07:54:26;;;;;;;;;;;17.90;99.90;;;;;;5058190;28;19905;-70
2021/04/02 07:56:54;;;;;;;;;;;18.00;99.90;;;;;;5090192;28;19904;-69
2021/04/02 07:59:32;;;;;;;;;;;18.10;99.90;;;;;;5085588;28;19908;-73
2021/04/02 08:02:01;;;;;;;;;;;18.30;99.90;;;;;;5092071;28;20365;-70
2021/04/02 08:04:39;;;;;;;;;;;18.40;99.90;;;;;;5095731;28;19990;-71
2021/04/02 08:07:13;;;;;;;17.17;16.08;;;18.60;99.90;;;;;;5094004;28;20374;-72
2021/04/02 08:09:59;;;;;;;;;;;18.50;99.90;;;;;;5093199;28;20049;-72
2021/04/02 08:12:26;;;;;;;;;;;18.50;99.90;;;;;;5089819;28;20328;-71
2021/04/02 08:14:51;;;;;;;;;;;18.60;99.90;;;;;;5093305;28;19961;-71
2021/04/02 08:17:22;;;;;;;;;;;19.00;99.90;;;;;;5089948;28;19904;-75
2021/04/02 08:19:48;;;;;;;;;;;18.90;99.90;;;;;;5073334;28;19904;-70
2021/04/02 08:22:15;;;;;;;;;;;;;;;;;;5094308;28;19999;-70
2021/04/02 08:24:42;;;;;;;;;;;18.60;99.90;;;;;;5093194;28;19911;-72
2021/04/02 08:27:23;;;;;;;;;;;18.60;99.90;;;;;;5093404;28;19924;-74
2021/04/02 08:30:01;;;;;;;;;;;18.50;99.90;;;;;;5092280;28;19912;-71
2021/04/02 08:32:27;;;;;;;;;;;18.50;99.90;;;;;;5094525;28;19908;-71
2021/04/02 08:34:53;;;;;;;;;;;18.40;99.90;;;;;;5076189;28;19914;-71
2021/04/02 08:37:19;;;;;;;;;;;18.50;99.90;;;;;;5073483;28;19910;-70
2021/04/02 08:39:46;;;;;;;;;;;18.50;99.90;;;;;;5095061;28;19911;-72
2021/04/02 08:42:12;;;;;;;;;;;18.50;99.90;;;;;;5094190;28;19983;-70
2021/04/02 08:44:56;;;;;;;;;;;18.60;99.90;;;;;;5094147;28;19995;-71
2021/04/02 08:47:22;;;;;;;;;;;18.60;99.90;;;;;;5093520;28;19907;-70
2021/04/02 08:49:54;;;;;;;;;;;18.70;99.90;;;;;;5073786;28;19918;-71
2021/04/02 08:52:23;;;;;;;;;;;18.70;99.90;;;;;;5095219;28;19957;-73
2021/04/02 08:54:59;;;;;;;;;;;18.70;99.90;;;;;;5076074;28;19998;-70
2021/04/02 08:57:25;;;;;;;;;;;18.70;99.90;;;;;;5094629;28;19912;-69
2021/04/02 08:59:52;;;;;;;;;;;18.80;99.90;;;;;;5073425;28;20384;-71
2021/04/02 09:02:18;;;;;;;;;;;18.90;99.90;;;;;;5094233;28;19904;-71
2021/04/02 09:04:47;;;;;;;;;;;19.00;99.90;;;;;;5094374;28;19908;-71
2021/04/02 09:07:15;;;;;;;;;;;19.00;99.90;;;;;;5094165;28;19949;-71
2021/04/02 09:09:43;;;;;;;;;;;;;;;;;;5070780;28;19924;-70
2021/04/02 09:12:13;;;;;;;;;;;19.10;99.90;;;;;;5094308;28;19991;-71
2021/04/02 09:14:39;;;;;;;;;;;;;;;;;;5094553;28;19908;-70
2021/04/02 09:17:05;;;;;;;;;;;19.50;99.90;;;;;;5083702;28;20251;-71
2021/04/02 09:19:32;;;;;;;;;;;19.70;99.90;;;;;;5082704;28;20533;-70
2021/04/02 09:21:58;;;;;;;;;;;19.60;99.90;;;;;;5076104;28;19904;-72
2021/04/02 09:24:26;;;;;;;;;;;;;;;;;;5094536;28;19904;-71
2021/04/02 09:26:52;;;;;;;;;;;19.80;99.90;;;;;;5094127;28;20420;-70
2021/04/02 09:29:20;;;;;;;;;;;;;;;;;;5094164;28;19928;-71
2021/04/02 09:31:47;;;;;;;;;;;20.20;99.90;;;;;;5094296;28;19911;-73
2021/04/02 09:34:19;;;;;;;;;;;20.40;99.90;;;;;;5094789;28;19908;-72
2021/04/02 09:36:49;;;;;;;;;;;20.50;99.90;;;;;;5094062;28;19903;-72
2021/04/02 09:39:15;;;;;;;;;;;20.40;99.90;;;;;;5094060;28;19911;-73
2021/04/02 09:41:47;;;;;;;;;;;20.40;99.90;;;;;;5061993;28;19965;-70
2021/04/02 09:44:14;;;;;;;;;;;20.30;99.90;;;;;;5082701;28;19904;-74
2021/04/02 09:46:47;;;;;;;;;;;20.20;99.90;;;;;;5090581;28;19907;-71
2021/04/02 09:49:15;;;;;;;;;;;20.20;99.90;;;;;;5084307;28;19913;-70
2021/04/02 09:51:45;;;;;;;;;;;20.20;99.90;;;;;;5060098;28;19905;-73
2021/04/02 09:54:11;;;;;;;;;;;20.00;99.90;;;;;;5086058;28;19908;-72
2021/04/02 09:56:38;;;;;;;;;;;20.00;99.90;;;;;;5084536;28;19948;-70
2021/04/02 09:59:04;;;;;;;;;;;20.00;99.90;;;;;;5080432;28;19904;-70
2021/04/02 10:01:33;;;;;;;;;;;20.10;99.90;;;;;;5084985;28;19914;-70
2021/04/02 10:03:59;;;;;;;;;;;20.20;99.90;;;;;;5079396;28;19905;-69
2021/04/02 10:06:25;;;;;;;;;;;20.30;99.90;;;;;;5082802;28;19956;-72
2021/04/02 10:08:50;;;;;;;;;;;20.50;99.90;;;;;;5082286;28;20022;-70
2021/04/02 10:11:16;;;;;;;;;;;20.50;99.90;;;;;;5081229;28;19962;-71
2021/04/02 10:13:42;;;;;;;;;;;;;;;;;;5084086;28;19912;-70
2021/04/02 10:16:08;;;;;;;;;;;20.80;97.90;;;;;;5079567;28;19908;-72
2021/04/02 10:18:35;;;;;;;;;;;20.70;99.60;;;;;;5054729;28;20378;-72
2021/04/02 10:21:03;;;;;;;24.20;21.98;;;20.70;99.40;;;;;;5092048;28;20375;-74
2021/04/02 10:23:28;;;;;;;;;;;20.80;99.90;;;;;;5093415;28;20024;-69
2021/04/02 10:25:57;;;;;;;;;;;20.80;99.90;;;;;;5093026;28;20285;-76
2021/04/02 10:28:23;;;;;;;;;;;20.90;98.00;;;;;;5075694;28;19911;-72
2021/04/02 10:30:52;;;;;;;25.30;23.10;;;20.80;96.50;;;;;;5080411;28;19908;-71
2021/04/02 10:33:19;;;;;;;;;;;20.60;95.30;;;;;;5092240;28;20074;-75
2021/04/02 10:35:46;;;;;;;;;;;20.70;96.70;;;;;;5093361;28;19911;-70
2021/04/02 10:38:17;;;;;;;;;;;20.80;95.60;;;;;;5093564;28;19908;-74
2021/04/02 10:40:43;;;;;;;18.55;17.25;;;20.80;92.90;;;;;;5092103;28;20439;-72
2021/04/02 10:43:09;;;;;;;;;;;20.90;91.40;;;;;;5093071;28;20031;-72
2021/04/02 10:45:35;;;;;;;;;;;20.70;91.10;;;;;;5093569;28;19904;-70
2021/04/02 10:48:01;;;;;;;;;;;20.80;91.10;;;;;;5093220;28;19908;-71
2021/04/02 10:50:27;;;;;;;;;;;20.90;91.30;;;;;;5093607;28;19912;-71
2021/04/02 10:52:53;;;;;;;;;;;21.00;92.70;;;;;;5074910;28;19904;-72
2021/04/02 10:55:19;;;;;;;;;;;;;;;;;;5083472;28;19911;-77
2021/04/02 10:57:45;;;;;;;;;;;;;;;;;;5092783;28;19904;-72
2021/04/02 11:00:11;;;;;;;;;;;;;;;;;;5092183;28;19911;-71
2021/04/02 11:02:37;;;;;;;;;;;;;;;;;;5075573;28;19931;-72
2021/04/02 11:05:03;;;;;;;;;;;;;;;;;;5093478;28;19959;-72
2021/04/02 11:07:29;;;;;;;;;;;;;;;;;;5091316;28;20299;-71
2021/04/02 11:09:55;;;;;;;;;;;;;;;;;;5094081;28;19919;-73
2021/04/02 11:12:28;;;;;;;;;;;;;;;;;;5090693;28;19911;-72
2021/04/02 11:14:53;;;;;;;;;;;;;;;;;;5093826;28;19911;-70
2021/04/02 11:17:19;;;;;;;;;;;;;;;;;;5090050;28;20290;-72
2021/04/02 11:19:45;;;;;;;;;;;;;;;;;;5093374;28;20361;-71
2021/04/02 11:22:11;;;;;;;;;;;;;;;;;;5096387;28;20373;-69
2021/04/02 11:24:37;;;;;;;27.35;24.60;;;;;;;;;;5095712;28;20399;-73
2021/04/02 11:27:03;;;;;;;;;;;;;;;;;;5078335;28;20489;-72
2021/04/02 11:29:32;;;;;;;21.73;19.92;;;;;;;;;;5076624;28;20417;-69
2021/04/02 11:31:58;;;;;;;;;;;;;;;;;;5097009;28;20024;-72
2021/04/02 11:34:24;;;;;;;;;;;;;;;;;;5096788;28;19910;-71
2021/04/02 11:36:50;;;;;;;;;;;;;;;;;;5090150;28;19908;-73
2021/04/02 11:39:16;;;;;;;;;;;;;;;;;;5070780;28;20338;-70
2021/04/02 11:41:42;;;;;;;;;;;;;;;;;;5096200;28;19960;-71
2021/04/02 11:44:08;;;;;;;;;;;;;;;;;;5095866;28;20075;-69
2021/04/02 11:46:34;;;;;;;;;;;;;;;;;;5096693;28;19911;-70
2021/04/02 11:49:00;;;;;;;;;;;;;;;;;;5096270;28;19912;-72
2021/04/02 11:51:26;;;;;;;;;;;;;;;;;;5082028;28;19911;-70
2021/04/02 11:53:52;;;;;;;;;;;;;;;;;;5093396;28;19904;-74
2021/04/02 11:56:18;;;;;;;;;;;;;;;;;;5096343;28;19904;-71
2021/04/02 11:58:44;;;;;;;;;;;;;;;;;;5095940;28;20340;-72
2021/04/02 12:01:10;;;;;;;;;;;;;;;;;;5096055;28;19915;-69
2021/04/02 12:03:36;;;;;;;;;;;;;;;;;;5095280;28;19904;-70
2021/04/02 12:06:02;;;;;;;;;;;;;;;;;;5096129;28;20358;-75
2021/04/02 12:08:31;;;;;;;21.20;19.50;;;;;;;;;;5094852;28;20380;-70
2021/04/02 12:10:57;;;;;;;;;;;;;;;;;;5095438;28;20024;-73
2021/04/02 12:13:23;;;;;;;;;;;;;;;;;;5095827;28;20377;-72
2021/04/02 12:15:53;;;;;;;15.55;14.63;;;;;;;;;;5094674;28;20378;-71
2021/04/02 12:18:18;;;;;;;;;;;;;;;;;;5077627;28;20123;-73
2021/04/02 12:20:45;;;;;;;22.70;20.80;;;;;;;;;;5094711;28;19999;-72
2021/04/02 12:23:10;;;;;;;;;;;;;;;;;;5090194;28;20137;-71
2021/04/02 12:25:36;;;;;;;;;;;;;;;;;;5085573;28;19908;-73
2021/04/02 12:28:03;;;;;;;;;;;;;;;;;;5075174;28;20011;-72
2021/04/02 12:30:29;;;;;;;15.50;14.57;;;;;;;;;;5075576;28;20425;-77
2021/04/02 12:32:55;;;;;;;;;;;;;;;;;;5094254;28;20019;-72
2021/04/02 12:35:21;;;;;;;;;;;;;;;;;;5095005;28;20281;-74
2021/04/02 12:37:47;;;;;;;;;;;;;;;;;;5094859;28;19908;-73
2021/04/02 12:40:17;;;;;;;;;;;22.40;99.90;;;;;;5094594;28;20292;-72
2021/04/02 12:42:43;;;;;;;;;;;;;;;;;;5076925;28;20293;-75
2021/04/02 12:45:09;;;;;;;;;;;;;;;;;;5092523;28;20271;-71
2021/04/02 12:47:36;;;;;;;;;;;23.00;98.70;;;;;;5076925;28;20289;-71
2021/04/02 12:50:04;;;;;;;;;;;22.20;97.70;;;;;;5094369;28;19931;-72
2021/04/02 12:52:30;;;;;;;;;;;22.50;98.00;;;;;;5092962;28;19919;-73
2021/04/02 12:54:55;;;;;;;;;;;22.50;96.50;;;;;;5094260;28;19904;-70
2021/04/02 12:57:21;;;;;;;;;;;21.90;96.00;;;;;;5093930;28;19915;-73
2021/04/02 12:59:47;;;;;;;;;;;;;;;;;;5093320;28;19954;-71
2021/04/02 13:02:13;;;;;;;;;;;23.00;79.90;;;;;;5093856;28;20026;-72
2021/04/02 13:04:47;;;;;;;;;;;22.90;86.80;;;;;;5093289;28;19904;-71
2021/04/02 13:07:13;;;;;;;;;;;22.80;89.20;;;;;;5092821;28;19927;-72
2021/04/02 13:09:40;;;;;;;;;;;22.90;89.20;;;;;;5075885;28;20352;-68
2021/04/02 13:12:06;;;;;;;;;;;22.60;88.60;;;;;;5094037;28;19904;-70
2021/04/02 13:14:31;;;;;;;;;;;22.30;89.10;;;;;;5093793;28;19907;-72
2021/04/02 13:16:57;;;;;;;;;;;22.10;90.00;;;;;;5093615;28;20385;-70
2021/04/02 13:19:22;;;;;;;;;;;22.10;90.50;;;;;;5069703;28;19904;-70
2021/04/02 13:21:48;;;;;;;;;;;21.90;90.60;;;;;;5093708;28;19918;-71
2021/04/02 13:24:13;;;;;;;;;;;21.70;91.50;;;;;;5093167;28;19957;-73
2021/04/02 13:26:39;;;;;;;;;;;21.60;91.90;;;;;;5087585;28;19956;-72
2021/04/02 13:29:08;;;;;;;21.60;19.90;;;21.50;92.40;;;;;;5085183;28;20421;-70
2021/04/02 13:31:33;;;;;;;;;;;21.20;91.90;;;;;;5074675;28;20028;-70
2021/04/02 13:33:59;;;;;;;;;;;21.30;91.60;;;;;;5093555;28;19999;-74
2021/04/02 13:36:26;;;;;;;;;;;21.20;87.10;;;;;;5082608;28;20273;-71
2021/04/02 13:38:52;;;;;;;;;;;21.00;85.40;;;;;;5074488;28;19908;-76
2021/04/02 13:41:18;;;;;;;;;;;21.00;86.00;;;;;;5062317;28;20002;-70
2021/04/02 13:43:44;;;;;;;;;;;20.90;88.20;;;;;;5091554;28;20027;-70
2021/04/02 13:46:09;;;;;;;;;;;21.00;86.20;;;;;;5093442;28;19930;-68
2021/04/02 13:48:35;;;;;;;;;;;20.90;86.30;;;;;;5088782;28;20334;-68
2021/04/02 13:51:01;;;;;;;;;;;20.70;86.00;;;;;;5092472;28;19926;-74
2021/04/02 13:53:27;;;;;;;;;;;20.60;88.40;;;;;;5069117;28;20342;-71
2021/04/02 13:55:53;;;;;;;;;;;20.60;91.30;;;;;;5083510;28;19912;-71
2021/04/02 13:58:20;;;;;;;;;;;20.60;93.00;;;;;;5083882;28;19911;-70
2021/04/02 14:00:45;;;;;;;;;;;20.70;95.20;;;;;;5086010;28;19986;-69
2021/04/02 14:03:11;;;;;;;;;;;20.50;97.20;;;;;;5082718;28;19998;-71
2021/04/02 14:05:48;;;;;;;;;;;;;;;;;;5078582;28;19909;-71
2021/04/02 14:08:14;;;;;;;;;;;;;;;;;;5082087;28;19911;-72
2021/04/02 14:10:40;;;;;;;;;;;;;;;;;;5079229;28;19912;-71
2021/04/02 14:13:06;;;;;;;;;;;;;;;;;;5079449;28;19950;-71
2021/04/02 14:15:32;;;;;;;;;;;;;;;;;;5080323;28;19908;-73
2021/04/02 14:17:58;;;;;;;;;;;;;;;;;;5077980;28;19908;-70
2021/04/02 14:20:23;;;;;;;;;;;;;;;;;;5088293;28;19904;-72
2021/04/02 14:22:49;;;;;;;;;;;;;;;;;;5092336;28;19923;-69
2021/04/02 14:25:16;;;;;;;;;;;20.90;94.40;;;;;;5092577;28;19904;-71
2021/04/02 14:27:42;;;;;;;;;;;20.90;95.00;;;;;;5092569;28;19965;-72
2021/04/02 14:30:10;;;;;;;;;;;20.90;97.20;;;;;;5091994;28;19962;-70
2021/04/02 14:32:36;;;;;;;;;;;21.70;95.80;;;;;;5080407;28;19908;-73
2021/04/02 14:35:05;;;;;;;;;;;;;;;;;;5091230;28;20273;-73
2021/04/02 14:37:31;;;;;;;;;;;;;;;;;;5074542;28;19904;-75
2021/04/02 14:39:56;;;;;;;;;;;25.10;63.00;;;;;;5074752;28;19939;-74
2021/04/02 14:42:22;;;;;;;;;;;25.50;63.80;;;;;;5093036;28;20322;-69